createdAt,value
2023-05-03T00:00:46.541Z,73.04
2023-05-03T00:01:49.289Z,72.23
2023-05-03T00:02:52.382Z,71.47
2023-05-03T00:03:54.591Z,71.08
2023-05-03T00:04:56.491Z,70.84
2023-05-03T00:06:13.416Z,71.26
2023-05-03T00:07:15.581Z,72.44
2023-05-03T00:08:17.466Z,70.76
2023-05-03T00:09:19.298Z,69.10
2023-05-03T00:10:22.000Z,68.43
2023-05-03T00:11:23.885Z,71.00
2023-05-03T00:12:25.846Z,68.90
2023-05-03T00:13:27.879Z,69.89
2023-05-03T00:14:29.731Z,69.83
2023-05-03T00:15:31.626Z,68.21
2023-05-03T00:16:33.663Z,68.21
2023-05-03T00:17:37.006Z,69.86
2023-05-03T00:18:39.048Z,68.52
2023-05-03T00:19:40.968Z,68.80
2023-05-03T00:20:42.982Z,68.99
2023-05-03T00:21:45.292Z,70.16
2023-05-03T00:22:47.200Z,68.80
2023-05-03T00:23:49.059Z,68.22
2023-05-03T00:24:50.914Z,68.17
2023-05-03T00:25:54.598Z,68.15
2023-05-03T00:26:56.570Z,69.68
2023-05-03T00:27:58.635Z,69.13
2023-05-03T00:29:00.702Z,67.51
2023-05-03T00:30:03.643Z,68.89
2023-05-03T00:31:07.688Z,68.81
2023-05-03T00:32:09.753Z,70.32
2023-05-03T00:33:11.733Z,69.91
2023-05-03T00:34:14.212Z,69.12
2023-05-03T00:35:16.349Z,69.35
2023-05-03T00:36:18.975Z,71.05
2023-05-03T00:37:21.456Z,72.34
2023-05-03T00:38:23.474Z,73.48
2023-05-03T00:39:27.202Z,73.16
2023-05-03T00:40:29.201Z,74.38
2023-05-03T00:41:31.062Z,73.94
2023-05-03T00:42:35.859Z,73.74
2023-05-03T00:43:38.379Z,72.94
2023-05-03T00:44:40.247Z,73.09
2023-05-03T00:45:42.303Z,72.63
2023-05-03T00:46:44.334Z,70.83
2023-05-03T00:47:46.384Z,71.59
2023-05-03T00:48:51.217Z,70.81
2023-05-03T00:49:53.269Z,71.11
2023-05-03T00:51:00.756Z,70.50
2023-05-03T00:52:05.224Z,72.43
2023-05-03T00:53:07.173Z,71.27
2023-05-03T00:54:10.082Z,70.43
2023-05-03T00:55:12.123Z,71.63
2023-05-03T00:56:17.866Z,70.11
2023-05-03T00:57:20.066Z,69.45
2023-05-03T00:58:21.920Z,69.58
2023-05-03T00:59:24.522Z,69.25
2023-05-03T01:00:26.801Z,69.65
2023-05-03T01:01:28.867Z,69.65
2023-05-03T01:02:30.819Z,69.17
2023-05-03T01:03:33.207Z,69.54
2023-05-03T01:04:36.016Z,69.33
2023-05-03T01:05:50.119Z,68.10
2023-05-03T01:07:01.948Z,68.09
2023-05-03T01:08:16.871Z,68.98
2023-05-03T01:10:53.765Z,67.93
2023-05-03T01:12:20.803Z,67.69
2023-05-03T01:13:50.226Z,68.50
2023-05-03T01:14:55.909Z,68.26
2023-05-03T01:16:07.671Z,67.56
2023-05-03T01:17:14.266Z,67.60
2023-05-03T01:18:19.938Z,67.17
2023-05-03T01:19:36.868Z,66.73
2023-05-03T01:20:42.736Z,66.61
2023-05-03T01:21:48.410Z,66.90
2023-05-03T01:23:00.302Z,66.66
2023-05-03T01:24:12.121Z,66.39
2023-05-03T01:25:14.822Z,66.18
2023-05-03T01:26:20.349Z,66.70
2023-05-03T01:27:22.289Z,66.72
2023-05-03T01:28:24.865Z,66.46
2023-05-03T01:29:26.726Z,66.56
2023-05-03T01:30:31.520Z,66.55
2023-05-03T01:32:59.303Z,66.88
2023-05-03T01:34:24.446Z,66.91
2023-05-03T01:35:35.783Z,66.98
2023-05-03T01:36:41.608Z,66.95
2023-05-03T01:37:43.893Z,67.01
2023-05-03T01:38:49.306Z,66.85
2023-05-03T01:40:06.508Z,67.16
2023-05-03T01:41:12.979Z,67.20
2023-05-03T01:42:15.809Z,66.90
2023-05-03T01:43:19.197Z,66.87
2023-05-03T01:44:22.552Z,66.88
2023-05-03T01:45:25.781Z,66.65
2023-05-03T01:46:28.383Z,66.57
2023-05-03T01:47:31.126Z,66.38
2023-05-03T01:48:33.615Z,66.28
2023-05-03T01:49:35.785Z,66.96
2023-05-03T01:50:37.856Z,67.19
2023-05-03T01:51:39.865Z,66.83
2023-05-03T01:52:41.901Z,66.66
2023-05-03T01:53:43.773Z,66.76
2023-05-03T01:54:45.832Z,67.17
2023-05-03T01:55:47.736Z,67.39
2023-05-03T01:56:49.898Z,67.39
2023-05-03T01:57:51.821Z,67.69
2023-05-03T01:58:54.967Z,67.27
2023-05-03T01:59:56.814Z,67.07
2023-05-03T02:00:58.819Z,66.95
2023-05-03T02:02:00.852Z,66.93
2023-05-03T02:03:02.741Z,66.80
2023-05-03T02:04:04.746Z,66.92
2023-05-03T02:05:07.686Z,66.58
2023-05-03T02:06:09.691Z,66.47
2023-05-03T02:07:11.692Z,66.16
2023-05-03T02:08:13.687Z,66.00
2023-05-03T02:09:15.600Z,65.90
2023-05-03T02:10:17.617Z,65.76
2023-05-03T02:11:20.421Z,65.72
2023-05-03T02:12:22.425Z,65.56
2023-05-03T02:13:24.298Z,65.63
2023-05-03T02:14:26.160Z,65.70
2023-05-03T02:15:28.025Z,65.68
2023-05-03T02:16:30.057Z,65.44
2023-05-03T02:17:32.042Z,65.44
2023-05-03T02:18:35.130Z,65.60
2023-05-03T02:19:37.111Z,65.62
2023-05-03T02:20:45.655Z,65.58
2023-05-03T02:21:48.712Z,65.85
2023-05-03T02:22:50.599Z,65.70
2023-05-03T02:23:52.467Z,65.12
2023-05-03T02:24:54.319Z,65.12
2023-05-03T02:25:57.862Z,64.85
2023-05-03T02:27:00.098Z,64.84
2023-05-03T02:28:02.025Z,64.42
2023-05-03T02:29:06.035Z,64.02
2023-05-03T02:30:08.916Z,64.12
2023-05-03T02:31:10.927Z,63.86
2023-05-03T02:32:12.952Z,64.36
2023-05-03T02:33:14.813Z,64.12
2023-05-03T02:34:16.708Z,64.17
2023-05-03T02:35:18.955Z,64.51
2023-05-03T02:36:20.922Z,64.81
2023-05-03T02:37:22.799Z,64.27
2023-05-03T02:38:24.866Z,64.20
2023-05-03T02:39:26.935Z,64.49
2023-05-03T02:40:28.994Z,64.04
2023-05-03T02:41:30.848Z,64.34
2023-05-03T02:42:32.765Z,64.19
2023-05-03T02:43:34.817Z,63.89
2023-05-03T02:44:37.131Z,64.32
2023-05-03T02:45:39.110Z,64.57
2023-05-03T02:46:41.401Z,64.61
2023-05-03T02:47:43.869Z,64.38
2023-05-03T02:48:45.889Z,64.01
2023-05-03T02:49:47.997Z,64.25
2023-05-03T02:50:50.126Z,64.24
2023-05-03T02:51:52.233Z,64.30
2023-05-03T02:52:54.088Z,64.13
2023-05-03T02:53:56.061Z,64.55
2023-05-03T02:54:57.954Z,63.99
2023-05-03T02:55:59.917Z,64.05
2023-05-03T02:57:01.861Z,63.73
2023-05-03T02:58:03.734Z,64.00
2023-05-03T02:59:05.811Z,64.37
2023-05-03T03:00:10.391Z,64.02
2023-05-03T03:01:12.431Z,64.17
2023-05-03T03:02:14.670Z,64.52
2023-05-03T03:03:16.628Z,64.39
2023-05-03T03:04:18.721Z,65.21
2023-05-03T03:05:20.670Z,65.29
2023-05-03T03:06:22.842Z,64.61
2023-05-03T03:07:24.828Z,64.42
2023-05-03T03:08:26.774Z,64.24
2023-05-03T03:09:28.768Z,64.30
2023-05-03T03:10:32.532Z,64.65
2023-05-03T03:11:35.892Z,64.36
2023-05-03T03:12:38.773Z,64.57
2023-05-03T03:13:40.713Z,64.57
2023-05-03T03:14:42.591Z,65.03
2023-05-03T03:15:44.532Z,64.64
2023-05-03T03:16:46.731Z,64.66
2023-05-03T03:17:48.703Z,64.83
2023-05-03T03:18:50.806Z,64.44
2023-05-03T03:19:52.800Z,65.09
2023-05-03T03:20:54.791Z,65.16
2023-05-03T03:21:56.637Z,64.71
2023-05-03T03:22:59.697Z,64.44
2023-05-03T03:24:01.849Z,64.24
2023-05-03T03:25:05.103Z,64.41
2023-05-03T03:26:10.279Z,64.53
2023-05-03T03:27:12.845Z,64.42
2023-05-03T03:28:14.810Z,64.55
2023-05-03T03:29:16.780Z,64.13
2023-05-03T03:30:18.895Z,64.41
2023-05-03T03:31:20.824Z,64.76
2023-05-03T03:32:22.734Z,64.14
2023-05-03T03:33:24.826Z,63.94
2023-05-03T03:34:26.809Z,63.42
2023-05-03T03:35:30.066Z,63.73
2023-05-03T03:36:32.311Z,64.61
2023-05-03T03:37:34.197Z,64.80
2023-05-03T03:38:36.160Z,64.84
2023-05-03T03:39:38.224Z,64.02
2023-05-03T03:40:40.191Z,64.29
2023-05-03T03:41:42.753Z,64.30
2023-05-03T03:42:44.951Z,64.10
2023-05-03T03:43:46.811Z,63.63
2023-05-03T03:44:53.176Z,63.76
2023-05-03T03:45:55.068Z,63.96
2023-05-03T03:46:57.462Z,64.05
2023-05-03T03:47:59.572Z,64.18
2023-05-03T03:49:02.428Z,64.17
2023-05-03T03:50:05.638Z,63.96
2023-05-03T03:51:09.029Z,63.80
2023-05-03T03:52:10.896Z,63.52
2023-05-03T03:53:12.857Z,64.01
2023-05-03T03:54:14.734Z,64.30
2023-05-03T03:55:16.800Z,64.35
2023-05-03T03:56:20.092Z,63.49
2023-05-03T03:57:22.343Z,63.77
2023-05-03T03:58:24.260Z,63.66
2023-05-03T03:59:26.635Z,63.89
2023-05-03T04:00:28.603Z,64.03
2023-05-03T04:01:30.666Z,63.96
2023-05-03T04:02:32.667Z,63.74
2023-05-03T04:03:38.048Z,63.61
2023-05-03T04:04:40.161Z,63.61
2023-05-03T04:05:42.022Z,64.41
2023-05-03T04:06:44.031Z,63.70
2023-05-03T04:07:46.045Z,63.67
2023-05-03T04:08:47.940Z,63.35
2023-05-03T04:09:49.802Z,63.93
2023-05-03T04:10:51.991Z,63.58
2023-05-03T04:11:53.952Z,64.13
2023-05-03T04:12:55.808Z,64.34
2023-05-03T04:13:57.659Z,64.39
2023-05-03T04:14:59.499Z,63.66
2023-05-03T04:16:02.524Z,63.74
2023-05-03T04:17:05.177Z,63.86
2023-05-03T04:18:07.289Z,63.81
2023-05-03T04:19:09.240Z,63.50
2023-05-03T04:20:12.546Z,63.72
2023-05-03T04:21:14.412Z,63.30
2023-05-03T04:22:16.272Z,63.05
2023-05-03T04:23:18.132Z,63.05
2023-05-03T04:24:20.049Z,62.95
2023-05-03T04:25:23.040Z,63.45
2023-05-03T04:26:31.819Z,63.50
2023-05-03T04:27:28.824Z,63.68
2023-05-03T04:28:30.891Z,63.76
2023-05-03T04:29:32.755Z,63.98
2023-05-03T04:30:34.953Z,63.64
2023-05-03T04:31:38.975Z,62.85
2023-05-03T04:32:41.862Z,63.65
2023-05-03T04:33:45.362Z,63.10
2023-05-03T04:34:50.534Z,62.76
2023-05-03T04:35:53.305Z,62.41
2023-05-03T04:36:55.280Z,62.18
2023-05-03T04:37:57.158Z,62.28
2023-05-03T04:38:59.050Z,62.07
2023-05-03T04:40:01.383Z,61.76
2023-05-03T04:41:03.568Z,61.87
2023-05-03T04:42:05.438Z,61.22
2023-05-03T04:43:07.405Z,60.61
2023-05-03T04:44:09.284Z,60.26
2023-05-03T04:45:11.919Z,59.98
2023-05-03T04:46:14.141Z,59.30
2023-05-03T04:47:16.183Z,59.02
2023-05-03T04:48:18.209Z,58.99
2023-05-03T04:49:20.248Z,58.34
2023-05-03T04:50:22.394Z,58.08
2023-05-03T04:51:24.305Z,58.99
2023-05-03T04:52:26.255Z,57.85
2023-05-03T04:53:28.345Z,58.76
2023-05-03T04:54:30.209Z,57.91
2023-05-03T04:55:32.221Z,57.26
2023-05-03T04:56:34.470Z,58.13
2023-05-03T04:57:36.921Z,57.69
2023-05-03T04:58:38.962Z,56.88
2023-05-03T04:59:40.856Z,56.80
2023-05-03T05:00:44.472Z,57.04
2023-05-03T05:01:48.272Z,56.20
2023-05-03T05:02:50.369Z,55.77
2023-05-03T05:03:52.912Z,56.12
2023-05-03T05:04:54.909Z,55.97
2023-05-03T05:05:56.768Z,55.60
2023-05-03T05:06:58.842Z,54.25
2023-05-03T05:08:00.840Z,55.46
2023-05-03T05:09:03.096Z,55.71
2023-05-03T05:10:07.744Z,55.06
2023-05-03T05:11:10.294Z,54.09
2023-05-03T05:12:12.425Z,53.08
2023-05-03T05:13:15.090Z,54.51
2023-05-03T05:14:16.958Z,53.95
2023-05-03T05:15:18.806Z,52.75
2023-05-03T05:16:20.805Z,52.67
2023-05-03T05:17:24.005Z,52.85
2023-05-03T05:18:26.105Z,52.30
2023-05-03T05:19:28.114Z,52.91
2023-05-03T05:20:30.230Z,52.26
2023-05-03T05:21:32.224Z,51.05
2023-05-03T05:22:34.091Z,50.92
2023-05-03T05:23:35.957Z,50.55
2023-05-03T05:24:37.866Z,50.14
2023-05-03T05:25:39.724Z,49.68
2023-05-03T05:26:43.777Z,49.28
2023-05-03T05:27:45.662Z,49.92
2023-05-03T05:28:47.537Z,50.52
2023-05-03T05:29:49.418Z,50.53
2023-05-03T05:30:51.390Z,49.58
2023-05-03T05:31:53.444Z,49.95
2023-05-03T05:32:55.404Z,50.79
2023-05-03T05:33:58.560Z,50.96
2023-05-03T05:35:00.470Z,50.80
2023-05-03T05:36:03.567Z,49.16
2023-05-03T05:37:05.649Z,48.78
2023-05-03T05:38:08.112Z,48.43
2023-05-03T05:39:10.486Z,49.31
2023-05-03T05:40:14.417Z,48.78
2023-05-03T05:41:16.325Z,48.11
2023-05-03T05:42:19.085Z,48.46
2023-05-03T05:43:20.979Z,49.00
2023-05-03T05:44:22.829Z,48.67
2023-05-03T05:45:24.726Z,48.14
2023-05-03T05:46:27.108Z,48.01
2023-05-03T05:47:29.143Z,46.88
2023-05-03T05:48:31.170Z,47.19
2023-05-03T05:49:33.282Z,47.08
2023-05-03T05:50:35.722Z,47.02
2023-05-03T05:51:37.691Z,46.98
2023-05-03T05:52:39.739Z,47.12
2023-05-03T05:53:41.611Z,46.13
2023-05-03T05:54:43.545Z,46.14
2023-05-03T05:55:45.428Z,45.92
2023-05-03T05:56:47.496Z,45.86
2023-05-03T05:57:49.516Z,46.27
2023-05-03T05:58:51.491Z,46.11
2023-05-03T05:59:54.209Z,45.55
2023-05-03T06:01:00.207Z,44.68
2023-05-03T06:02:02.972Z,44.59
2023-05-03T06:03:06.206Z,45.98
2023-05-03T06:04:09.092Z,44.91
2023-05-03T06:05:11.226Z,44.09
2023-05-03T06:06:13.576Z,44.42
2023-05-03T06:07:15.529Z,43.50
2023-05-03T06:08:17.454Z,43.42
2023-05-03T06:09:24.804Z,43.35
2023-05-03T06:10:25.118Z,43.17
2023-05-03T06:11:29.258Z,43.43
2023-05-03T06:12:31.147Z,43.08
2023-05-03T06:13:33.020Z,43.40
2023-05-03T06:14:35.062Z,44.48
2023-05-03T06:15:36.990Z,43.57
2023-05-03T06:16:39.108Z,42.33
2023-05-03T06:17:41.176Z,42.36
2023-05-03T06:18:43.134Z,42.44
2023-05-03T06:19:45.191Z,42.30
2023-05-03T06:20:50.422Z,42.29
2023-05-03T06:21:52.963Z,42.09
2023-05-03T06:22:54.920Z,41.22
2023-05-03T06:23:56.818Z,41.31
2023-05-03T06:24:58.953Z,41.60
2023-05-03T06:26:00.929Z,41.53
2023-05-03T06:27:02.960Z,40.77
2023-05-03T06:28:05.521Z,41.15
2023-05-03T06:29:07.381Z,41.00
2023-05-03T06:30:10.941Z,41.12
2023-05-03T06:31:13.741Z,40.73
2023-05-03T06:32:16.259Z,40.59
2023-05-03T06:33:18.145Z,40.72
2023-05-03T06:34:21.088Z,40.43
2023-05-03T06:35:23.045Z,41.21
2023-05-03T06:36:25.322Z,41.33
2023-05-03T06:37:27.301Z,40.64
2023-05-03T06:38:29.170Z,40.17
2023-05-03T06:39:31.138Z,40.44
2023-05-03T06:40:33.830Z,39.65
2023-05-03T06:41:36.308Z,40.37
2023-05-03T06:42:38.310Z,39.90
2023-05-03T06:43:40.268Z,40.20
2023-05-03T06:44:44.223Z,39.94
2023-05-03T06:45:46.232Z,39.78
2023-05-03T06:46:49.784Z,40.25
2023-05-03T06:47:52.814Z,39.86
2023-05-03T06:48:56.063Z,39.71
2023-05-03T06:49:58.023Z,39.35
2023-05-03T06:51:00.147Z,39.10
2023-05-03T06:52:02.048Z,38.43
2023-05-03T06:53:03.922Z,38.96
2023-05-03T06:54:05.916Z,38.71
2023-05-03T06:55:09.454Z,38.25
2023-05-03T06:56:11.948Z,38.66
2023-05-03T06:57:13.911Z,38.36
2023-05-03T06:58:16.414Z,38.24
2023-05-03T06:59:18.788Z,38.27
2023-05-03T07:00:23.103Z,37.81
2023-05-03T07:01:25.187Z,37.49
2023-05-03T07:02:27.404Z,37.32
2023-05-03T07:03:29.590Z,37.68
2023-05-03T07:04:31.593Z,37.65
2023-05-03T07:05:34.053Z,37.28
2023-05-03T07:06:48.158Z,36.91
2023-05-03T07:07:40.020Z,37.27
2023-05-03T07:08:42.003Z,37.19
2023-05-03T07:09:44.169Z,37.16
2023-05-03T07:10:46.431Z,37.19
2023-05-03T07:11:49.220Z,37.50
2023-05-03T07:12:51.766Z,37.42
2023-05-03T07:13:54.172Z,37.56
2023-05-03T07:14:56.155Z,37.14
2023-05-03T07:16:02.049Z,36.92
2023-05-03T07:17:03.177Z,37.71
2023-05-03T07:18:05.247Z,37.16
2023-05-03T07:19:07.542Z,36.64
2023-05-03T07:20:11.989Z,36.01
2023-05-03T07:21:14.575Z,35.88
2023-05-03T07:22:17.225Z,35.85
2023-05-03T07:23:20.428Z,35.57
2023-05-03T07:24:23.523Z,35.56
2023-05-03T07:25:25.667Z,35.59
2023-05-03T07:26:27.805Z,35.60
2023-05-03T07:27:29.644Z,35.76
2023-05-03T07:28:31.557Z,35.30
2023-05-03T07:29:33.942Z,34.46
2023-05-03T07:30:35.955Z,34.26
2023-05-03T07:31:39.323Z,33.79
2023-05-03T07:32:41.424Z,33.81
2023-05-03T07:33:43.634Z,33.88
2023-05-03T07:34:45.672Z,33.29
2023-05-03T07:35:48.090Z,34.09
2023-05-03T07:36:52.248Z,33.89
2023-05-03T07:37:54.793Z,34.44
2023-05-03T07:38:58.665Z,34.14
2023-05-03T07:40:00.791Z,34.42
2023-05-03T07:41:03.053Z,34.02
2023-05-03T07:42:05.591Z,33.73
2023-05-03T07:43:09.282Z,33.29
2023-05-03T07:44:11.327Z,32.92
2023-05-03T07:45:13.200Z,32.97
2023-05-03T07:46:15.362Z,32.99
2023-05-03T07:47:17.376Z,32.76
2023-05-03T07:48:19.492Z,32.45
2023-05-03T07:49:21.475Z,32.62
2023-05-03T07:50:23.432Z,32.72
2023-05-03T07:51:25.312Z,32.67
2023-05-03T07:52:27.663Z,32.78
2023-05-03T07:53:29.545Z,32.67
2023-05-03T07:54:31.524Z,32.58
2023-05-03T07:55:33.398Z,32.58
2023-05-03T07:56:35.657Z,32.81
2023-05-03T07:57:37.520Z,32.70
2023-05-03T07:58:40.859Z,32.31
2023-05-03T07:59:43.206Z,32.00
2023-05-03T08:00:45.297Z,32.21
2023-05-03T08:01:47.157Z,32.15
2023-05-03T08:02:49.219Z,31.98
2023-05-03T08:03:53.066Z,32.33
2023-05-03T08:04:55.454Z,31.87
2023-05-03T08:05:57.476Z,31.80
2023-05-03T08:07:02.545Z,32.20
2023-05-03T08:08:05.038Z,31.85
2023-05-03T08:09:06.897Z,31.49
2023-05-03T08:10:10.337Z,31.93
2023-05-03T08:11:12.433Z,31.70
2023-05-03T08:12:14.324Z,31.63
2023-05-03T08:13:16.878Z,31.37
2023-05-03T08:14:18.733Z,30.70
2023-05-03T08:15:20.754Z,30.80
2023-05-03T08:16:23.179Z,30.69
2023-05-03T08:17:25.413Z,30.58
2023-05-03T08:18:27.390Z,30.86
2023-05-03T08:19:29.670Z,31.22
2023-05-03T08:20:31.777Z,30.77
2023-05-03T08:21:33.809Z,30.88
2023-05-03T08:22:35.886Z,30.69
2023-05-03T08:23:37.742Z,31.18
2023-05-03T08:24:39.894Z,30.98
2023-05-03T08:25:41.747Z,31.17
2023-05-03T08:26:44.291Z,31.12
2023-05-03T08:27:46.234Z,31.33
2023-05-03T08:28:48.081Z,31.57
2023-05-03T08:29:49.951Z,31.40
2023-05-03T08:30:51.986Z,30.87
2023-05-03T08:31:53.898Z,30.79
2023-05-03T08:32:56.039Z,31.09
2023-05-03T08:33:58.188Z,30.42
2023-05-03T08:35:00.032Z,30.62
2023-05-03T08:36:02.896Z,30.56
2023-05-03T08:37:05.104Z,30.94
2023-05-03T08:38:08.901Z,31.01
2023-05-03T08:39:10.776Z,30.36
2023-05-03T08:40:13.823Z,30.52
2023-05-03T08:41:30.859Z,30.97
2023-05-03T08:42:33.110Z,31.09
2023-05-03T08:43:38.730Z,30.97
2023-05-03T08:44:48.149Z,31.05
2023-05-03T08:45:50.361Z,31.06
2023-05-03T08:46:52.344Z,30.92
2023-05-03T08:47:54.831Z,31.09
2023-05-03T08:48:59.314Z,31.56
2023-05-03T08:50:06.496Z,31.07
2023-05-03T08:51:10.391Z,31.02
2023-05-03T08:52:14.428Z,31.27
2023-05-03T08:53:16.403Z,30.84
2023-05-03T08:54:18.317Z,31.20
2023-05-03T08:55:20.523Z,31.27
2023-05-03T08:56:35.500Z,31.50
2023-05-03T08:57:37.644Z,31.59
2023-05-03T08:58:39.542Z,31.17
2023-05-03T08:59:51.563Z,30.89
2023-05-03T09:00:53.740Z,31.57
2023-05-03T09:01:55.637Z,31.44
2023-05-03T09:02:58.431Z,31.52
2023-05-03T09:04:00.536Z,31.14
2023-05-03T09:05:03.169Z,31.15
2023-05-03T09:06:19.112Z,31.30
2023-05-03T09:07:21.561Z,31.11
2023-05-03T09:08:23.549Z,31.76
2023-05-03T09:09:31.438Z,31.32
2023-05-03T09:10:39.227Z,31.73
2023-05-03T09:11:41.226Z,31.54
2023-05-03T09:12:43.093Z,31.50
2023-05-03T09:13:45.028Z,31.69
2023-05-03T09:14:46.886Z,31.82
2023-05-03T09:15:58.421Z,31.80
2023-05-03T09:17:15.901Z,31.48
2023-05-03T09:18:19.607Z,31.53
2023-05-03T09:19:21.686Z,32.11
2023-05-03T09:20:27.511Z,32.12
2023-05-03T09:21:30.187Z,32.52
2023-05-03T09:22:32.773Z,32.57
2023-05-03T09:23:34.691Z,32.42
2023-05-03T09:24:37.318Z,32.34
2023-05-03T09:25:41.785Z,32.43
2023-05-03T09:26:45.727Z,32.87
2023-05-03T09:27:51.542Z,32.51
2023-05-03T09:28:53.695Z,32.45
2023-05-03T09:29:55.587Z,32.43
2023-05-03T09:31:05.980Z,32.59
2023-05-03T09:32:07.977Z,32.72
2023-05-03T09:33:10.525Z,32.82
2023-05-03T09:34:23.109Z,33.01
2023-05-03T09:35:25.173Z,32.96
2023-05-03T09:36:27.595Z,33.20
2023-05-03T09:37:38.797Z,32.54
2023-05-03T09:38:40.888Z,32.78
2023-05-03T09:39:45.344Z,32.58
2023-05-03T09:40:47.525Z,32.74
2023-05-03T09:41:50.129Z,32.18
2023-05-03T09:43:09.346Z,31.99
2023-05-03T09:44:12.569Z,32.72
2023-05-03T09:45:18.231Z,32.40
2023-05-03T09:46:20.272Z,32.51
2023-05-03T09:47:22.278Z,32.49
2023-05-03T09:48:25.604Z,32.92
2023-05-03T09:49:27.626Z,32.46
2023-05-03T09:50:32.149Z,32.68
2023-05-03T09:51:34.650Z,32.68
2023-05-03T09:52:37.796Z,33.23
2023-05-03T09:53:40.430Z,33.30
2023-05-03T09:54:43.801Z,33.12
2023-05-03T09:55:47.976Z,33.30
2023-05-03T09:56:51.365Z,33.77
2023-05-03T09:57:55.834Z,34.15
2023-05-03T09:58:58.200Z,34.03
2023-05-03T10:00:00.572Z,34.49
2023-05-03T10:01:04.259Z,33.87
2023-05-03T10:02:08.146Z,33.90
2023-05-03T10:03:11.621Z,33.98
2023-05-03T10:04:18.418Z,34.10
2023-05-03T10:05:21.350Z,34.05
2023-05-03T10:06:32.723Z,34.25
2023-05-03T10:07:34.835Z,34.23
2023-05-03T10:08:43.483Z,34.32
2023-05-03T10:09:47.163Z,34.07
2023-05-03T10:10:50.466Z,34.01
2023-05-03T10:11:54.016Z,34.10
2023-05-03T10:12:57.018Z,33.81
2023-05-03T10:14:01.641Z,34.10
2023-05-03T10:15:07.613Z,34.41
2023-05-03T10:16:16.472Z,33.93
2023-05-03T10:17:45.634Z,33.97
2023-05-03T10:18:33.613Z,33.91
2023-05-03T10:21:04.192Z,33.83
2023-05-03T10:22:10.909Z,34.13
2023-05-03T10:23:13.508Z,33.45
2023-05-03T10:24:16.842Z,33.65
2023-05-03T10:25:18.824Z,34.04
2023-05-03T10:26:20.797Z,33.88
2023-05-03T10:27:22.660Z,33.93
2023-05-03T10:28:24.519Z,33.88
2023-05-03T10:29:39.386Z,34.01
2023-05-03T10:30:42.818Z,33.92
2023-05-03T10:31:48.486Z,33.88
2023-05-03T10:32:51.102Z,33.43
2023-05-03T10:33:53.190Z,33.70
2023-05-03T10:35:14.893Z,33.69
2023-05-03T10:36:17.252Z,33.67
2023-05-03T10:37:22.868Z,33.65
2023-05-03T10:38:27.253Z,33.44
2023-05-03T10:39:30.432Z,33.59
2023-05-03T10:40:43.627Z,33.76
2023-05-03T10:42:03.959Z,33.71
2023-05-03T10:43:05.888Z,34.28
2023-05-03T10:44:35.917Z,33.44
2023-05-03T10:45:38.349Z,33.55
2023-05-03T10:46:43.385Z,33.65
2023-05-03T10:48:05.879Z,33.59
2023-05-03T10:49:18.070Z,33.78
2023-05-03T10:50:22.023Z,34.22
2023-05-03T10:51:31.330Z,33.95
2023-05-03T10:52:43.128Z,34.19
2023-05-03T10:53:45.222Z,34.08
2023-05-03T10:54:47.184Z,34.10
2023-05-03T10:57:12.089Z,34.12
2023-05-03T10:58:15.506Z,34.29
2023-05-03T10:59:17.545Z,34.41
2023-05-03T11:00:41.417Z,34.37
2023-05-03T11:01:49.935Z,34.20
2023-05-03T11:03:10.976Z,33.97
2023-05-03T11:04:19.768Z,33.96
2023-05-03T11:05:24.108Z,34.19
2023-05-03T11:06:31.886Z,33.86
2023-05-03T11:07:34.169Z,34.16
2023-05-03T11:08:36.234Z,33.74
2023-05-03T11:09:38.078Z,33.56
2023-05-03T11:10:40.600Z,33.85
2023-05-03T11:11:42.565Z,33.66
2023-05-03T11:12:44.728Z,33.73
2023-05-03T11:13:46.603Z,33.95
2023-05-03T11:14:51.593Z,33.88
2023-05-03T11:15:56.155Z,33.82
2023-05-03T11:16:58.779Z,34.03
2023-05-03T11:18:02.789Z,34.16
2023-05-03T11:19:05.432Z,33.87
2023-05-03T11:20:09.140Z,34.09
2023-05-03T11:21:12.211Z,34.26
2023-05-03T11:22:14.276Z,34.04
2023-05-03T11:23:16.117Z,34.30
2023-05-03T11:24:20.017Z,34.34
2023-05-03T11:25:21.932Z,34.50
2023-05-03T11:26:23.989Z,34.40
2023-05-03T11:27:26.610Z,34.35
2023-05-03T11:28:28.581Z,34.23
2023-05-03T11:29:30.498Z,34.55
2023-05-03T11:30:34.041Z,34.68
2023-05-03T11:31:36.167Z,34.55
2023-05-03T11:32:38.678Z,34.78
2023-05-03T11:33:41.014Z,34.74
2023-05-03T11:34:43.349Z,34.73
2023-05-03T11:35:45.434Z,34.68
2023-05-03T11:36:47.518Z,34.92
2023-05-03T11:37:49.471Z,34.74
2023-05-03T11:38:51.339Z,34.55
2023-05-03T11:39:53.713Z,34.43
2023-05-03T11:40:55.779Z,34.70
2023-05-03T11:42:03.586Z,34.67
2023-05-03T11:43:05.781Z,34.83
2023-05-03T11:44:16.885Z,34.76
2023-05-03T11:45:12.096Z,34.59
2023-05-03T11:46:20.986Z,34.60
2023-05-03T11:47:24.502Z,34.57
2023-05-03T11:48:26.549Z,34.63
2023-05-03T11:49:28.535Z,34.84
2023-05-03T11:50:48.771Z,34.86
2023-05-03T11:51:53.816Z,34.75
2023-05-03T11:52:55.709Z,34.93
2023-05-03T11:54:06.856Z,34.72
2023-05-03T11:55:06.754Z,34.95
2023-05-03T11:56:11.794Z,35.13
2023-05-03T11:57:14.235Z,35.35
2023-05-03T11:59:39.714Z,35.03
2023-05-03T12:00:50.384Z,35.01
2023-05-03T12:01:53.066Z,34.58
2023-05-03T12:02:59.156Z,34.99
2023-05-03T12:04:03.498Z,35.00
2023-05-03T12:05:08.145Z,34.87
2023-05-03T12:06:11.957Z,34.72
2023-05-03T12:07:18.527Z,34.90
2023-05-03T12:08:20.853Z,34.97
2023-05-03T12:09:26.745Z,34.78
2023-05-03T12:10:32.920Z,34.86
2023-05-03T12:11:43.958Z,34.85
2023-05-03T12:12:57.115Z,34.75
2023-05-03T12:14:01.057Z,34.67
2023-05-03T12:15:04.534Z,34.68
2023-05-03T12:16:14.358Z,34.71
2023-05-03T12:17:15.619Z,34.82
2023-05-03T12:18:18.792Z,34.51
2023-05-03T12:19:32.996Z,34.34
2023-05-03T12:21:58.834Z,34.73
2023-05-03T12:22:57.652Z,34.68
2023-05-03T12:23:57.876Z,34.63
2023-05-03T12:25:00.224Z,34.67
2023-05-03T12:26:04.957Z,34.69
2023-05-03T12:27:08.585Z,34.40
2023-05-03T12:29:14.919Z,34.23
2023-05-03T12:30:17.961Z,34.20
2023-05-03T12:31:22.717Z,34.18
2023-05-03T12:32:24.109Z,34.34
2023-05-03T12:33:28.433Z,34.56
2023-05-03T12:34:34.800Z,34.51
2023-05-03T12:35:35.088Z,34.31
2023-05-03T12:36:38.496Z,34.50
2023-05-03T12:37:43.467Z,34.51
2023-05-03T12:38:44.853Z,34.86
2023-05-03T12:39:54.473Z,34.86
2023-05-03T12:40:51.254Z,34.51
2023-05-03T12:42:06.879Z,34.62
2023-05-03T12:42:57.416Z,34.53
2023-05-03T12:44:00.651Z,34.99
2023-05-03T12:45:04.758Z,35.12
2023-05-03T12:46:32.399Z,34.75
2023-05-03T12:47:15.864Z,34.83
2023-05-03T12:48:15.548Z,35.11
2023-05-03T12:49:17.816Z,35.06
2023-05-03T12:50:24.437Z,35.09
2023-05-03T12:51:25.893Z,35.09
2023-05-03T12:53:31.514Z,34.70
2023-05-03T12:54:34.322Z,34.70
2023-05-03T12:55:43.466Z,35.16
2023-05-03T12:56:47.561Z,34.98
2023-05-03T12:57:53.582Z,34.90
2023-05-03T13:00:01.655Z,34.51
2023-05-03T13:04:41.596Z,34.41
2023-05-03T13:05:30.658Z,34.19
2023-05-03T13:06:17.891Z,34.05
2023-05-03T13:07:28.059Z,34.53
2023-05-03T13:08:33.390Z,34.60
2023-05-03T13:09:38.908Z,34.34
2023-05-03T13:10:34.423Z,34.63
2023-05-03T13:11:36.541Z,34.66
2023-05-03T13:12:38.740Z,34.49
2023-05-03T13:13:40.705Z,34.43
2023-05-03T13:14:42.565Z,34.38
2023-05-03T13:15:44.464Z,34.68
2023-05-03T13:16:48.395Z,34.35
2023-05-03T13:17:52.181Z,34.21
2023-05-03T13:18:54.807Z,34.00
2023-05-03T13:19:56.803Z,33.99
2023-05-03T13:20:58.758Z,34.07
2023-05-03T13:22:00.671Z,34.22
2023-05-03T13:23:02.957Z,34.34
2023-05-03T13:24:05.954Z,34.17
2023-05-03T13:25:08.159Z,34.47
2023-05-03T13:26:10.486Z,34.36
2023-05-03T13:27:12.339Z,34.26
2023-05-03T13:28:14.193Z,34.03
2023-05-03T13:29:16.072Z,34.18
2023-05-03T13:30:20.555Z,34.19
2023-05-03T13:31:22.480Z,34.21
2023-05-03T13:32:24.692Z,34.07
2023-05-03T13:33:26.737Z,34.24
2023-05-03T13:34:28.713Z,34.35
2023-05-03T13:35:31.027Z,34.24
2023-05-03T13:36:33.009Z,34.46
2023-05-03T13:37:35.274Z,34.75
2023-05-03T13:38:37.225Z,34.59
2023-05-03T13:39:39.118Z,34.53
2023-05-03T13:40:41.172Z,34.39
2023-05-03T13:41:44.883Z,34.55
2023-05-03T13:42:47.759Z,34.58
2023-05-03T13:43:49.627Z,34.95
2023-05-03T13:44:51.704Z,34.87
2023-05-03T13:46:01.487Z,34.94
2023-05-03T13:47:03.510Z,34.96
2023-05-03T13:48:17.382Z,35.21
2023-05-03T13:49:10.550Z,34.97
2023-05-03T13:50:13.248Z,34.97
2023-05-03T13:51:15.592Z,34.62
2023-05-03T13:52:19.624Z,34.88